createdAt,value
2023-05-09T00:00:03.840Z,13.1342
2023-05-09T00:01:06.902Z,13.1071
2023-05-09T00:02:09.882Z,13.0561
2023-05-09T00:03:12.982Z,13.0485
2023-05-09T00:04:16.004Z,13.0236
2023-05-09T00:05:19.007Z,12.9945
2023-05-09T00:06:21.972Z,12.9614
2023-05-09T00:07:24.961Z,12.9733
2023-05-09T00:08:27.967Z,12.9419
2023-05-09T00:09:30.971Z,12.9669
2023-05-09T00:10:33.985Z,12.9686
2023-05-09T00:11:37.052Z,13.0002
2023-05-09T00:12:40.088Z,12.9485
2023-05-09T00:13:43.061Z,12.9725
2023-05-09T00:14:46.059Z,12.9438
2023-05-09T00:15:49.030Z,12.9047
2023-05-09T00:16:52.125Z,12.9328
2023-05-09T00:17:55.119Z,12.9474
2023-05-09T00:18:58.130Z,12.9106
2023-05-09T00:20:01.112Z,12.8819
2023-05-09T00:21:04.108Z,12.8469
2023-05-09T00:22:07.163Z,12.8593
2023-05-09T00:23:10.129Z,12.8092
2023-05-09T00:24:13.122Z,12.8043
2023-05-09T00:25:16.332Z,12.7099
2023-05-09T00:26:19.463Z,12.7759
2023-05-09T00:27:22.472Z,12.7606
2023-05-09T00:28:25.450Z,12.7170
2023-05-09T00:29:28.437Z,12.7089
2023-05-09T00:30:31.407Z,12.6634
2023-05-09T00:31:34.421Z,12.6841
2023-05-09T00:32:37.400Z,12.5674
2023-05-09T00:33:40.424Z,12.5932
2023-05-09T00:34:43.443Z,12.7719
2023-05-09T00:35:46.369Z,12.7979
2023-05-09T00:36:49.383Z,12.8242
2023-05-09T00:37:52.340Z,12.7723
2023-05-09T00:38:55.294Z,12.8120
2023-05-09T00:39:58.274Z,12.7624
2023-05-09T00:41:01.253Z,12.6761
2023-05-09T00:42:04.226Z,12.5974
2023-05-09T00:43:07.219Z,12.4235
2023-05-09T00:44:10.190Z,12.4641
2023-05-09T00:45:13.316Z,12.4672
2023-05-09T00:46:16.532Z,12.3598
2023-05-09T00:47:19.601Z,12.2778
2023-05-09T00:48:22.583Z,12.4473
2023-05-09T00:49:25.575Z,12.4491
2023-05-09T00:50:28.583Z,12.4460
2023-05-09T00:51:31.525Z,12.5046
2023-05-09T00:52:34.558Z,12.4628
2023-05-09T00:53:37.537Z,12.4762
2023-05-09T00:54:40.550Z,12.3869
2023-05-09T00:55:43.617Z,12.3547
2023-05-09T00:56:46.564Z,12.4235
2023-05-09T00:57:49.531Z,12.3172
2023-05-09T00:58:52.521Z,12.2837
2023-05-09T00:59:55.516Z,12.3879
2023-05-09T01:00:58.837Z,12.3946
2023-05-09T01:02:01.837Z,12.4758
2023-05-09T01:03:04.920Z,12.4837
2023-05-09T01:04:07.938Z,12.4154
2023-05-09T01:05:10.965Z,12.4534
2023-05-09T01:06:13.965Z,12.4953
2023-05-09T01:07:16.942Z,12.4681
2023-05-09T01:08:19.894Z,12.5523
2023-05-09T01:09:23.138Z,12.5423
2023-05-09T01:10:26.127Z,12.5043
2023-05-09T01:11:29.134Z,12.5578
2023-05-09T01:12:32.114Z,12.5357
2023-05-09T01:13:35.138Z,12.4970
2023-05-09T01:14:38.142Z,12.4914
2023-05-09T01:15:41.200Z,12.4857
2023-05-09T01:16:44.151Z,12.4831
2023-05-09T01:17:47.161Z,12.4961
2023-05-09T01:18:50.109Z,12.4543
2023-05-09T01:19:53.079Z,12.4220
2023-05-09T01:20:56.064Z,12.4813
2023-05-09T01:21:59.088Z,12.5175
2023-05-09T01:23:02.017Z,12.5340
2023-05-09T01:24:05.005Z,12.5062
2023-05-09T01:25:08.227Z,12.5280
2023-05-09T01:26:11.203Z,12.5205
2023-05-09T01:27:14.229Z,12.4361
2023-05-09T01:28:17.189Z,12.3893
2023-05-09T01:29:20.427Z,12.3623
2023-05-09T01:30:23.449Z,12.3829
2023-05-09T01:31:26.506Z,12.3656
2023-05-09T01:32:29.514Z,12.3299
2023-05-09T01:33:32.459Z,12.3909
2023-05-09T01:34:35.461Z,12.4732
2023-05-09T01:35:38.428Z,12.5077
2023-05-09T01:36:41.388Z,12.4416
2023-05-09T01:37:44.405Z,12.3489
2023-05-09T01:38:47.341Z,12.3042
2023-05-09T01:39:50.348Z,12.3525
2023-05-09T01:40:53.362Z,12.4077
2023-05-09T01:41:56.899Z,12.3629
2023-05-09T01:42:59.889Z,12.3470
2023-05-09T01:44:02.910Z,12.3613
2023-05-09T01:45:06.220Z,12.3403
2023-05-09T01:46:09.218Z,12.2646
2023-05-09T01:47:12.415Z,12.2201
2023-05-09T01:48:15.416Z,11.9792
2023-05-09T01:49:19.167Z,12.0319
2023-05-09T01:50:22.141Z,11.8425
2023-05-09T01:51:25.109Z,11.8335
2023-05-09T01:52:28.098Z,11.8956
2023-05-09T01:53:31.120Z,12.0330
2023-05-09T01:54:34.073Z,12.2715
2023-05-09T01:55:37.061Z,12.1362
2023-05-09T01:56:40.043Z,12.0385
2023-05-09T01:57:43.052Z,11.9790
2023-05-09T01:58:46.005Z,11.9859
2023-05-09T01:59:49.230Z,11.9331
2023-05-09T02:00:52.249Z,11.7971
2023-05-09T02:01:55.886Z,11.7021
2023-05-09T02:02:58.920Z,11.6963
2023-05-09T02:04:01.919Z,11.7404
2023-05-09T02:05:04.924Z,11.9118
2023-05-09T02:06:07.648Z,11.7799
2023-05-09T02:07:10.845Z,11.6752
2023-05-09T02:08:13.826Z,11.5109
2023-05-09T02:09:16.850Z,11.7682
2023-05-09T02:11:20.065Z,11.8975
2023-05-09T02:11:20.065Z,11.9919
2023-05-09T02:12:23.048Z,12.0882
2023-05-09T02:13:26.078Z,12.0560
2023-05-09T02:14:29.124Z,12.0117
2023-05-09T02:15:32.113Z,12.0935
2023-05-09T02:16:35.156Z,12.2146
2023-05-09T02:17:38.159Z,12.1725
2023-05-09T02:18:41.100Z,12.2119
2023-05-09T02:19:42.415Z,12.2427
2023-05-09T02:20:45.483Z,12.2537
2023-05-09T02:21:48.424Z,12.1714
2023-05-09T02:22:51.662Z,12.0722
2023-05-09T02:23:54.638Z,11.9437
2023-05-09T02:24:57.983Z,12.0687
2023-05-09T02:26:00.931Z,12.0445
2023-05-09T02:27:04.292Z,12.0272
2023-05-09T02:28:07.297Z,12.0706
2023-05-09T02:29:10.300Z,12.1410
2023-05-09T02:30:13.496Z,12.1645
2023-05-09T02:31:16.508Z,12.1716
2023-05-09T02:32:19.752Z,12.2284
2023-05-09T02:33:22.724Z,12.2743
2023-05-09T02:34:25.693Z,12.2891
2023-05-09T02:35:28.694Z,12.4207
2023-05-09T02:36:31.684Z,12.4920
2023-05-09T02:37:34.938Z,12.4722
2023-05-09T02:38:37.925Z,12.4736
2023-05-09T02:39:41.028Z,12.4169
2023-05-09T02:40:44.061Z,12.3772
2023-05-09T02:41:47.013Z,12.3345
2023-05-09T02:42:49.997Z,12.2845
2023-05-09T02:43:53.023Z,12.2795
2023-05-09T02:44:55.940Z,12.2544
2023-05-09T02:45:58.992Z,12.2522
2023-05-09T02:47:01.919Z,12.1747
2023-05-09T02:48:07.640Z,12.1056
2023-05-09T02:49:07.874Z,12.1664
2023-05-09T02:50:11.201Z,12.1408
2023-05-09T02:51:14.206Z,12.1598
2023-05-09T02:52:17.193Z,12.0293
2023-05-09T02:53:20.156Z,11.8560
2023-05-09T02:54:23.135Z,11.8018
2023-05-09T02:55:26.152Z,11.9815
2023-05-09T02:56:29.168Z,12.0062
2023-05-09T02:57:32.124Z,12.1868
2023-05-09T02:58:35.102Z,12.2338
2023-05-09T02:59:38.061Z,12.3648
2023-05-09T03:00:41.067Z,12.4550
2023-05-09T03:01:44.107Z,12.4253
2023-05-09T03:02:47.164Z,12.4149
2023-05-09T03:03:50.180Z,12.4114
2023-05-09T03:04:53.127Z,12.4261
2023-05-09T03:05:56.105Z,12.3906
2023-05-09T03:06:59.112Z,12.2605
2023-05-09T03:08:02.097Z,12.2421
2023-05-09T03:09:05.111Z,12.2773
2023-05-09T03:10:08.075Z,12.2614
2023-05-09T03:11:11.069Z,12.1317
2023-05-09T03:12:14.094Z,12.0640
2023-05-09T03:13:17.104Z,11.9457
2023-05-09T03:14:20.082Z,11.8482
2023-05-09T03:15:23.082Z,11.7976
2023-05-09T03:16:26.055Z,11.7922
2023-05-09T03:17:26.635Z,11.7996
2023-05-09T03:18:29.613Z,11.9646
2023-05-09T03:19:32.617Z,12.0767
2023-05-09T03:20:35.958Z,12.1816
2023-05-09T03:21:38.934Z,12.2087
2023-05-09T03:22:41.915Z,12.2409
2023-05-09T03:23:44.942Z,12.2415
2023-05-09T03:24:48.002Z,12.2250
2023-05-09T03:25:51.318Z,12.2542
2023-05-09T03:26:54.315Z,12.2374
2023-05-09T03:27:57.375Z,12.1999
2023-05-09T03:29:00.318Z,12.1896
2023-05-09T03:30:03.341Z,12.2065
2023-05-09T03:31:06.462Z,12.2391
2023-05-09T03:32:09.481Z,12.2705
2023-05-09T03:33:13.004Z,12.2784
2023-05-09T03:34:16.006Z,12.2949
2023-05-09T03:35:19.000Z,12.2924
2023-05-09T03:36:21.974Z,12.2704
2023-05-09T03:37:26.901Z,12.3133
2023-05-09T03:38:26.778Z,12.3108
2023-05-09T03:39:29.770Z,12.3093
2023-05-09T03:40:32.986Z,12.2811
2023-05-09T03:41:35.983Z,12.2478
2023-05-09T03:42:39.213Z,12.1997
2023-05-09T03:43:42.274Z,12.1568
2023-05-09T03:44:45.245Z,12.1347
2023-05-09T03:45:48.292Z,12.1419
2023-05-09T03:46:51.357Z,12.1527
2023-05-09T03:47:54.087Z,12.1866
2023-05-09T03:48:57.094Z,12.1933
2023-05-09T03:50:00.114Z,12.1799
2023-05-09T03:51:03.112Z,12.1607
2023-05-09T03:52:06.154Z,12.1779
2023-05-09T03:53:09.175Z,12.1446
2023-05-09T03:54:12.191Z,12.1771
2023-05-09T03:55:15.348Z,12.2319
2023-05-09T03:56:18.759Z,12.2721
2023-05-09T03:57:21.778Z,12.2925
2023-05-09T03:58:24.794Z,12.2757
2023-05-09T03:59:27.845Z,12.2720
2023-05-09T04:00:30.804Z,12.2655
2023-05-09T04:01:33.827Z,12.1185
2023-05-09T04:02:36.915Z,12.1945
2023-05-09T04:03:40.169Z,12.2332
2023-05-09T04:04:43.170Z,12.2553
2023-05-09T04:05:46.181Z,12.3082
2023-05-09T04:06:49.194Z,12.3469
2023-05-09T04:07:52.206Z,12.3538
2023-05-09T04:08:55.205Z,12.3671
2023-05-09T04:09:58.214Z,12.3774
2023-05-09T04:11:01.474Z,12.3786
2023-05-09T04:12:04.499Z,12.3844
2023-05-09T04:13:07.592Z,12.3921
2023-05-09T04:14:10.567Z,12.3838
2023-05-09T04:15:13.954Z,12.3811
2023-05-09T04:16:17.066Z,12.4008
2023-05-09T04:17:20.046Z,12.4012
2023-05-09T04:18:23.062Z,12.4198
2023-05-09T04:19:26.114Z,12.4432
2023-05-09T04:20:29.122Z,12.4708
2023-05-09T04:21:32.152Z,12.4909
2023-05-09T04:22:35.174Z,12.5112
2023-05-09T04:23:36.161Z,12.5302
2023-05-09T04:24:39.160Z,12.5368
2023-05-09T04:25:42.420Z,12.5374
2023-05-09T04:26:45.458Z,12.5486
2023-05-09T04:27:48.466Z,12.5591
2023-05-09T04:28:51.499Z,12.5856
2023-05-09T04:29:54.494Z,12.6337
2023-05-09T04:30:57.740Z,12.6560
2023-05-09T04:32:00.845Z,12.6428
2023-05-09T04:33:03.870Z,12.5911
2023-05-09T04:34:06.886Z,12.6461
2023-05-09T04:35:09.888Z,12.7102
2023-05-09T04:36:12.930Z,12.7364
2023-05-09T04:37:15.951Z,12.7606
2023-05-09T04:38:18.976Z,12.8153
2023-05-09T04:39:21.963Z,12.8217
2023-05-09T04:40:26.857Z,12.7842
2023-05-09T04:41:26.505Z,12.7759
2023-05-09T04:42:29.540Z,12.8008
2023-05-09T04:43:32.607Z,12.8076
2023-05-09T04:44:35.606Z,12.8569
2023-05-09T04:45:36.748Z,12.8508
2023-05-09T04:46:39.855Z,12.8219
2023-05-09T04:47:42.874Z,12.8291
2023-05-09T04:48:45.879Z,12.8706
2023-05-09T04:49:48.884Z,12.8467
2023-05-09T04:50:51.955Z,12.8839
2023-05-09T04:51:54.982Z,12.9263
2023-05-09T04:52:58.035Z,12.9212
2023-05-09T04:54:01.092Z,12.9254
2023-05-09T04:55:04.106Z,13.0057
2023-05-09T04:56:07.150Z,12.9644
2023-05-09T04:57:17.244Z,12.9175
2023-05-09T04:58:11.701Z,12.9575
2023-05-09T04:59:14.734Z,13.0215
2023-05-09T05:00:17.760Z,13.0562
2023-05-09T05:01:20.781Z,13.0460
2023-05-09T05:02:23.825Z,13.0471
2023-05-09T05:03:26.871Z,13.0759
2023-05-09T05:04:29.893Z,13.0489
2023-05-09T05:06:35.988Z,13.1101
2023-05-09T05:07:39.028Z,13.1613
2023-05-09T05:08:42.066Z,13.0792
2023-05-09T05:09:45.079Z,13.1051
2023-05-09T05:10:48.119Z,13.1593
2023-05-09T05:12:00.829Z,13.1978
2023-05-09T05:12:52.726Z,13.2546
2023-05-09T05:13:55.749Z,13.2433
2023-05-09T05:14:58.796Z,13.2697
2023-05-09T05:16:01.849Z,13.1232
2023-05-09T05:17:04.859Z,13.2226
2023-05-09T05:18:08.029Z,13.3139
2023-05-09T05:19:11.021Z,13.2944
2023-05-09T05:20:14.027Z,13.3010
2023-05-09T05:21:17.158Z,13.3626
2023-05-09T05:22:20.118Z,13.3878
2023-05-09T05:23:23.134Z,13.4045
2023-05-09T05:24:26.141Z,13.3996
2023-05-09T05:25:29.163Z,13.5405
2023-05-09T05:26:32.405Z,13.6192
2023-05-09T05:27:35.450Z,13.6247
2023-05-09T05:28:38.477Z,13.5501
2023-05-09T05:29:41.491Z,13.5237
2023-05-09T05:30:44.512Z,13.6877
2023-05-09T05:31:47.599Z,13.7485
2023-05-09T05:33:51.137Z,13.7069
2023-05-09T05:33:51.137Z,13.7152
2023-05-09T05:34:54.080Z,13.7422
2023-05-09T05:35:57.122Z,13.7874
2023-05-09T05:37:00.139Z,13.6926
2023-05-09T05:38:03.186Z,13.8050
2023-05-09T05:39:06.207Z,13.7901
2023-05-09T05:40:09.208Z,13.8603
2023-05-09T05:41:12.257Z,13.7333
2023-05-09T05:42:15.278Z,13.6739
2023-05-09T05:43:18.301Z,13.5352
2023-05-09T05:44:21.300Z,13.6597
2023-05-09T05:45:24.322Z,13.7406
2023-05-09T05:46:27.804Z,13.8721
2023-05-09T05:47:30.848Z,13.7395
2023-05-09T05:48:34.459Z,13.7735
2023-05-09T05:49:37.503Z,13.7807
2023-05-09T05:50:48.128Z,13.9354
2023-05-09T05:51:43.792Z,13.8266
2023-05-09T05:52:46.822Z,13.9437
2023-05-09T05:53:50.099Z,13.9371
2023-05-09T05:54:53.162Z,13.6052
2023-05-09T05:55:56.402Z,13.4639
2023-05-09T05:56:59.451Z,13.4722
2023-05-09T05:58:02.433Z,13.4507
2023-05-09T05:59:05.444Z,13.6399
2023-05-09T06:00:08.628Z,13.7876
2023-05-09T06:01:12.469Z,13.9629
2023-05-09T06:02:15.615Z,14.0898
2023-05-09T06:03:18.754Z,14.1112
2023-05-09T06:04:21.980Z,14.1225
2023-05-09T06:05:25.164Z,14.3385
2023-05-09T06:06:28.430Z,14.3313
2023-05-09T06:07:31.417Z,14.2471
2023-05-09T06:08:34.539Z,14.4390
2023-05-09T06:09:37.574Z,14.5807
2023-05-09T06:10:40.639Z,14.6379
2023-05-09T06:11:43.713Z,14.6420
2023-05-09T06:12:46.770Z,14.4481
2023-05-09T06:13:49.981Z,14.2156
2023-05-09T06:14:53.048Z,14.3748
2023-05-09T06:15:57.741Z,14.5797
2023-05-09T06:16:57.661Z,14.6480
2023-05-09T06:18:00.710Z,14.5303
2023-05-09T06:19:03.756Z,14.3636
2023-05-09T06:20:06.758Z,14.5557
2023-05-09T06:21:09.890Z,14.0374
2023-05-09T06:22:12.879Z,13.8693
2023-05-09T06:23:15.904Z,13.8613
2023-05-09T06:24:31.867Z,13.8727
2023-05-09T06:25:20.501Z,14.1026
2023-05-09T06:26:23.518Z,14.0604
2023-05-09T06:27:26.559Z,14.0589
2023-05-09T06:28:29.551Z,14.2646
2023-05-09T06:29:31.901Z,14.1862
2023-05-09T06:30:34.913Z,14.2562
2023-05-09T06:31:37.944Z,14.3740
2023-05-09T06:32:41.045Z,14.5672
2023-05-09T06:33:44.041Z,14.6570
2023-05-09T06:34:47.055Z,14.9398
2023-05-09T06:35:50.070Z,15.1367
2023-05-09T06:36:53.153Z,15.2037
2023-05-09T06:37:56.152Z,15.5194
2023-05-09T06:38:59.213Z,16.2368
2023-05-09T06:40:02.246Z,15.8568
2023-05-09T06:41:05.455Z,15.9418
2023-05-09T06:42:08.457Z,15.8549
2023-05-09T06:43:11.526Z,15.9903
2023-05-09T06:44:14.573Z,15.8709
2023-05-09T06:45:17.853Z,15.2689
2023-05-09T06:46:21.183Z,16.1103
2023-05-09T06:47:24.379Z,16.2773
2023-05-09T06:48:27.368Z,16.8723
2023-05-09T06:49:30.392Z,16.2245
2023-05-09T06:50:33.388Z,16.6031
2023-05-09T06:51:36.267Z,16.4274
2023-05-09T06:52:39.327Z,16.3459
2023-05-09T06:53:42.325Z,16.4875
2023-05-09T06:54:45.360Z,16.8450
2023-05-09T06:55:48.390Z,16.4744
2023-05-09T06:56:51.416Z,16.2580
2023-05-09T06:57:54.443Z,16.7914
2023-05-09T06:58:57.457Z,16.5501
2023-05-09T07:00:00.480Z,16.4229
2023-05-09T07:01:03.493Z,16.6774
2023-05-09T07:02:06.595Z,16.3883
2023-05-09T07:03:09.625Z,16.4273
2023-05-09T07:04:12.628Z,16.8893
2023-05-09T07:05:15.849Z,16.8007
2023-05-09T07:06:19.097Z,16.5907
2023-05-09T07:07:22.141Z,17.6808
2023-05-09T07:08:25.181Z,17.9682
2023-05-09T07:09:28.148Z,18.4121
2023-05-09T07:10:31.180Z,18.7695
2023-05-09T07:11:34.187Z,19.1345
2023-05-09T07:13:39.554Z,18.0104
2023-05-09T07:13:39.554Z,20.0951
2023-05-09T07:14:42.572Z,18.0320
2023-05-09T07:15:45.722Z,18.9542
2023-05-09T07:16:48.775Z,19.1763
2023-05-09T07:17:51.786Z,19.4083
2023-05-09T07:18:54.769Z,18.1148
2023-05-09T07:19:57.810Z,18.4189
2023-05-09T07:21:00.827Z,17.3019
2023-05-09T07:22:04.141Z,16.7930
2023-05-09T07:23:07.153Z,17.7788
2023-05-09T07:24:10.256Z,18.0422
2023-05-09T07:25:13.510Z,17.9660
2023-05-09T07:26:16.617Z,18.1357
2023-05-09T07:27:19.657Z,17.9063
2023-05-09T07:28:22.691Z,18.5823
2023-05-09T07:29:25.766Z,17.8534
2023-05-09T07:30:28.750Z,18.9784
2023-05-09T07:31:31.771Z,18.7304
2023-05-09T07:32:34.772Z,18.2395
2023-05-09T07:33:37.789Z,18.7733
2023-05-09T07:34:40.786Z,20.3495
2023-05-09T07:35:43.985Z,21.0679
2023-05-09T07:36:47.000Z,22.1490
2023-05-09T07:37:50.200Z,20.6299
2023-05-09T07:38:53.278Z,19.6669
2023-05-09T07:39:56.058Z,18.2143
2023-05-09T07:40:59.242Z,18.7479
2023-05-09T07:42:02.258Z,18.1085
2023-05-09T07:43:05.313Z,18.1696
2023-05-09T07:44:08.315Z,17.9305
2023-05-09T07:45:11.392Z,17.3933
2023-05-09T07:46:14.715Z,17.7966
2023-05-09T07:47:17.733Z,17.4430
2023-05-09T07:48:20.774Z,17.3735
2023-05-09T07:49:23.797Z,17.8335
2023-05-09T07:50:26.471Z,17.9049
2023-05-09T07:51:29.491Z,17.9693
2023-05-09T07:52:32.564Z,18.5881
2023-05-09T07:53:35.543Z,18.4759
2023-05-09T07:54:38.560Z,17.8834
2023-05-09T07:55:41.648Z,17.8173
2023-05-09T07:56:44.629Z,18.3265
2023-05-09T07:57:47.661Z,17.8696
2023-05-09T07:58:50.717Z,17.5471
2023-05-09T07:59:53.743Z,18.1080
2023-05-09T08:00:56.785Z,18.5852
2023-05-09T08:01:59.842Z,18.3225
2023-05-09T08:03:03.016Z,18.2659
2023-05-09T08:04:06.531Z,18.7316
2023-05-09T08:05:09.570Z,18.9841
2023-05-09T08:06:12.568Z,19.1677
2023-05-09T08:07:15.591Z,19.3070
2023-05-09T08:08:18.597Z,19.5477
2023-05-09T08:09:21.846Z,19.8323
2023-05-09T08:10:24.885Z,19.4192
2023-05-09T08:11:27.927Z,19.8690
2023-05-09T08:12:30.888Z,19.1201
2023-05-09T08:13:33.934Z,18.3694
2023-05-09T08:14:37.003Z,18.9005
2023-05-09T08:15:39.747Z,18.7894
2023-05-09T08:16:42.738Z,17.6967
2023-05-09T08:17:45.853Z,17.1835
2023-05-09T08:18:48.866Z,17.8462
2023-05-09T08:19:51.883Z,18.3278
2023-05-09T08:20:54.894Z,18.4954
2023-05-09T08:21:57.949Z,18.5837
2023-05-09T08:23:00.985Z,18.9751
2023-05-09T08:24:03.985Z,18.8658
2023-05-09T08:25:07.023Z,18.1859
2023-05-09T08:26:10.036Z,18.2235
2023-05-09T08:27:10.307Z,18.6339
2023-05-09T08:28:13.291Z,17.9409
2023-05-09T08:29:16.311Z,17.1810
2023-05-09T08:30:19.331Z,17.7755
2023-05-09T08:31:22.379Z,16.8453
2023-05-09T08:32:25.424Z,17.3036
2023-05-09T08:33:28.456Z,17.6717
2023-05-09T08:34:29.619Z,17.4124
2023-05-09T08:35:32.602Z,17.6926
2023-05-09T08:37:35.764Z,17.5771
2023-05-09T08:37:35.764Z,17.8038
2023-05-09T08:38:38.999Z,17.4051
2023-05-09T08:39:42.025Z,17.5129
2023-05-09T08:40:45.127Z,17.7662
2023-05-09T08:41:48.236Z,18.0097
2023-05-09T08:42:51.451Z,18.6117
2023-05-09T08:43:54.441Z,18.6957
2023-05-09T08:44:57.477Z,18.9314
2023-05-09T08:46:00.676Z,18.8392
2023-05-09T08:47:03.806Z,18.9102
2023-05-09T08:48:07.111Z,19.1787
2023-05-09T08:49:10.512Z,18.9297
2023-05-09T08:50:13.733Z,18.4220
2023-05-09T08:51:17.098Z,17.8286
2023-05-09T08:52:20.121Z,17.8721
2023-05-09T08:53:23.222Z,18.1223
2023-05-09T08:54:26.224Z,18.3931
2023-05-09T08:55:29.259Z,18.1302
2023-05-09T08:56:32.307Z,18.2141
2023-05-09T08:57:35.318Z,17.3426
2023-05-09T08:58:38.370Z,17.5823
2023-05-09T08:59:41.377Z,17.5393
2023-05-09T09:00:44.425Z,17.4701
2023-05-09T09:01:47.523Z,17.5793
2023-05-09T09:02:50.553Z,16.9607
2023-05-09T09:03:53.589Z,17.1100
2023-05-09T09:04:56.705Z,17.2352
2023-05-09T09:05:59.788Z,17.1874
2023-05-09T09:07:02.824Z,17.2658
2023-05-09T09:08:05.853Z,17.0313
2023-05-09T09:09:08.892Z,17.4057
2023-05-09T09:10:11.959Z,18.6708
2023-05-09T09:11:14.951Z,20.1292
2023-05-09T09:12:17.952Z,19.5758
2023-05-09T09:13:21.003Z,18.8229
2023-05-09T09:14:24.077Z,18.1336
2023-05-09T09:15:27.072Z,18.3851
2023-05-09T09:16:30.153Z,18.3611
2023-05-09T09:17:33.232Z,18.2956
2023-05-09T09:18:36.288Z,17.5301
2023-05-09T09:19:39.326Z,17.6055
2023-05-09T09:20:42.394Z,17.7202
2023-05-09T09:21:45.403Z,18.1203
2023-05-09T09:22:48.523Z,18.3468
2023-05-09T09:23:51.533Z,18.0315
2023-05-09T09:24:54.620Z,18.9748
2023-05-09T09:25:59.607Z,19.2351
2023-05-09T09:27:59.449Z,19.4355
2023-05-09T09:27:59.449Z,19.7219
2023-05-09T09:29:02.448Z,19.0444
2023-05-09T09:30:05.526Z,18.6831
2023-05-09T09:31:08.514Z,18.8708
2023-05-09T09:32:11.570Z,19.1790
2023-05-09T09:33:14.724Z,19.5345
2023-05-09T09:34:17.698Z,20.6543
2023-05-09T09:35:20.713Z,20.9582
2023-05-09T09:36:23.740Z,20.7839
2023-05-09T09:37:24.005Z,19.6298
2023-05-09T09:38:30.879Z,19.9813
2023-05-09T09:39:34.015Z,20.3219
2023-05-09T09:40:37.016Z,19.3425
2023-05-09T09:41:40.206Z,18.5246
2023-05-09T09:42:43.238Z,19.3805
2023-05-09T09:43:46.257Z,21.3892
2023-05-09T09:44:49.265Z,22.4219
2023-05-09T09:45:52.431Z,22.1878
2023-05-09T09:46:55.490Z,23.2132
2023-05-09T09:47:58.601Z,22.9217
2023-05-09T09:49:01.865Z,23.6736
2023-05-09T09:50:04.935Z,23.6848
2023-05-09T09:51:08.135Z,24.9788
2023-05-09T09:52:11.182Z,24.4570
2023-05-09T09:53:14.194Z,24.6701
2023-05-09T09:54:18.326Z,25.1411
2023-05-09T09:55:17.669Z,24.6709
2023-05-09T09:56:20.621Z,23.6251
2023-05-09T09:57:23.662Z,22.9292
2023-05-09T09:58:26.694Z,22.6013
2023-05-09T09:59:29.981Z,22.6718
2023-05-09T10:00:32.989Z,22.2309
2023-05-09T10:01:36.116Z,21.9805
2023-05-09T10:02:39.393Z,22.2980
2023-05-09T10:03:42.443Z,22.5714
2023-05-09T10:04:43.573Z,22.8940
2023-05-09T10:05:46.585Z,22.8345
2023-05-09T10:06:49.610Z,22.6930
2023-05-09T10:07:52.674Z,22.8931
2023-05-09T10:08:55.678Z,22.9856
2023-05-09T10:09:57.141Z,21.7879
2023-05-09T10:11:00.159Z,22.5491
2023-05-09T10:12:03.627Z,22.1782
2023-05-09T10:13:06.693Z,21.9607
2023-05-09T10:14:09.748Z,23.3801
2023-05-09T10:15:12.749Z,22.2111
2023-05-09T10:16:35.646Z,22.7615
2023-05-09T10:18:25.759Z,23.2143
2023-05-09T10:18:25.759Z,23.8829
2023-05-09T10:19:28.838Z,23.8142
2023-05-09T10:20:31.906Z,22.5632
2023-05-09T10:21:36.160Z,22.7602
2023-05-09T10:22:36.343Z,23.5053
2023-05-09T10:23:39.065Z,23.1920
2023-05-09T10:24:42.116Z,22.7293
2023-05-09T10:25:45.166Z,24.1021
2023-05-09T10:26:48.519Z,24.1393
2023-05-09T10:27:51.603Z,23.4888
2023-05-09T10:28:54.632Z,23.2531
2023-05-09T10:29:57.933Z,22.2745
2023-05-09T10:31:01.019Z,22.0670
2023-05-09T10:32:04.056Z,22.3245
2023-05-09T10:33:07.159Z,22.8512
2023-05-09T10:34:10.421Z,21.7246
2023-05-09T10:35:13.657Z,21.3610
2023-05-09T10:36:16.869Z,19.5783
2023-05-09T10:37:20.350Z,19.8943
2023-05-09T10:38:23.414Z,20.3739
2023-05-09T10:39:26.728Z,20.8120
2023-05-09T10:40:29.782Z,20.9028
2023-05-09T10:41:32.832Z,21.8459
2023-05-09T10:42:36.129Z,20.8469
2023-05-09T10:43:38.913Z,20.6684
2023-05-09T10:44:41.959Z,21.5850
2023-05-09T10:45:45.031Z,20.9623
2023-05-09T10:46:48.161Z,21.3880
2023-05-09T10:47:51.336Z,21.2562
2023-05-09T10:48:54.439Z,21.3922
2023-05-09T10:50:02.618Z,20.9372
2023-05-09T10:51:05.613Z,21.8104
2023-05-09T10:52:08.695Z,22.4599
2023-05-09T10:53:11.765Z,21.7837
2023-05-09T10:54:14.820Z,23.2428
2023-05-09T10:55:17.908Z,23.2918
2023-05-09T10:56:20.987Z,23.3004
2023-05-09T10:57:24.330Z,23.4831
2023-05-09T10:58:27.404Z,23.0395
2023-05-09T10:59:30.464Z,22.4665
2023-05-09T11:00:33.538Z,23.3321
2023-05-09T11:02:38.292Z,21.8064
2023-05-09T11:02:38.292Z,21.4738
2023-05-09T11:03:41.626Z,22.0967
2023-05-09T11:04:44.774Z,21.2581
2023-05-09T11:05:47.838Z,21.1990
2023-05-09T11:06:50.918Z,21.3197
2023-05-09T11:07:54.108Z,21.2212
2023-05-09T11:08:57.192Z,21.0713
2023-05-09T11:10:00.282Z,21.2116
2023-05-09T11:11:03.368Z,21.7282
2023-05-09T11:13:09.179Z,22.5702
2023-05-09T11:13:09.179Z,20.3937
2023-05-09T11:14:12.221Z,20.4584
2023-05-09T11:15:15.446Z,21.6516
2023-05-09T11:16:18.667Z,22.0887
2023-05-09T11:17:22.072Z,22.1797
2023-05-09T11:18:25.242Z,22.8146
2023-05-09T11:19:28.290Z,23.3252
2023-05-09T11:20:31.394Z,22.5546
2023-05-09T11:21:34.654Z,21.5152
2023-05-09T11:22:37.726Z,22.0515
2023-05-09T11:23:40.805Z,22.0617
2023-05-09T11:24:43.864Z,21.8366
2023-05-09T11:25:46.959Z,21.4180
2023-05-09T11:26:49.984Z,21.6194
2023-05-09T11:27:53.100Z,21.1868
2023-05-09T11:28:56.317Z,21.0239
2023-05-09T11:29:59.370Z,21.1291
2023-05-09T11:31:02.448Z,21.5198
2023-05-09T11:32:05.507Z,21.4519
2023-05-09T11:33:09.144Z,21.2874
2023-05-09T11:34:12.405Z,21.7543
2023-05-09T11:35:15.984Z,21.1329
2023-05-09T11:36:15.625Z,21.6207
2023-05-09T11:37:18.701Z,20.9208
2023-05-09T11:38:29.278Z,21.8355
2023-05-09T11:39:32.368Z,21.7713
2023-05-09T11:40:35.461Z,21.3054
2023-05-09T11:41:38.578Z,21.0476
2023-05-09T11:42:41.594Z,21.1219
2023-05-09T11:43:44.676Z,21.6531
2023-05-09T11:44:47.950Z,22.1958
2023-05-09T11:45:51.062Z,22.3639
2023-05-09T11:46:54.167Z,21.0877
2023-05-09T11:47:57.298Z,21.9384
2023-05-09T11:49:07.784Z,22.7159
2023-05-09T11:50:04.069Z,21.2514
2023-05-09T11:51:07.092Z,21.3652
2023-05-09T11:52:10.237Z,21.5920
2023-05-09T11:53:13.420Z,21.5429
2023-05-09T11:54:16.451Z,22.3584
2023-05-09T11:55:19.748Z,22.7253
2023-05-09T11:56:22.846Z,22.8535
2023-05-09T11:57:25.890Z,23.7423
2023-05-09T11:58:28.999Z,23.9865
2023-05-09T11:59:32.083Z,23.0205
2023-05-09T12:00:35.146Z,23.5093
2023-05-09T12:01:38.216Z,24.5776
2023-05-09T12:02:41.396Z,24.5022
2023-05-09T12:03:44.534Z,23.6805
2023-05-09T12:04:47.648Z,22.5515
2023-05-09T12:05:50.938Z,21.6915
2023-05-09T12:06:54.021Z,22.8930
2023-05-09T12:07:57.090Z,22.6344
2023-05-09T12:09:00.181Z,22.6817
2023-05-09T12:10:03.213Z,22.6963
2023-05-09T12:11:06.278Z,23.0725
2023-05-09T12:12:07.502Z,22.9433
2023-05-09T12:13:10.628Z,23.2068
2023-05-09T12:14:13.752Z,23.2527
2023-05-09T12:15:17.112Z,23.2787
2023-05-09T12:16:17.032Z,23.6774
2023-05-09T12:17:19.854Z,24.2913
2023-05-09T12:18:23.273Z,24.6979
2023-05-09T12:19:26.344Z,23.0313
2023-05-09T12:20:29.388Z,22.7632
2023-05-09T12:21:32.446Z,22.8066
2023-05-09T12:22:35.638Z,23.0536
2023-05-09T12:23:38.699Z,24.1634
2023-05-09T12:24:41.805Z,22.5599
2023-05-09T12:25:44.953Z,22.1047
2023-05-09T12:26:48.000Z,22.1984
2023-05-09T12:27:51.089Z,21.6736
2023-05-09T12:28:54.140Z,21.8883
2023-05-09T12:29:57.202Z,22.5570
2023-05-09T12:31:00.279Z,22.3650
2023-05-09T12:33:03.997Z,22.2733
2023-05-09T12:33:03.997Z,22.4693
2023-05-09T12:34:07.049Z,23.1748
2023-05-09T12:35:10.127Z,23.4097
2023-05-09T12:36:13.207Z,22.7978
2023-05-09T12:37:14.392Z,22.5269
2023-05-09T12:38:17.665Z,22.9900
2023-05-09T12:39:20.704Z,21.8203
2023-05-09T12:40:23.811Z,21.6665
2023-05-09T12:41:36.907Z,21.8811
2023-05-09T12:42:28.424Z,22.0071